Flight Track Log - Related Links

Times and Time Zones

All times are in EDT time to prevent confusion due to time zone crossing. See the SWA2004 flight status page for this flight to view local times or setup timezone preferences in your user account.

Time Position Orientation Groundspeed Altitude Reporting Facility
EDT Latitude Longitude Course Direction KTS MPH feet Rate Location/Type
Sat 07:54:20 PM 36.0764 -115.2186 270° West 188 216 4,400  Level Los Angeles Center
Sat 07:55:21 PM 36.1000 -115.2881 293° West 255 293 6,900 2,338 Climbing Los Angeles Center
Sat 07:56:36 PM 36.1689 -115.2631 16° North 260 299 9,700 2,365 Climbing Los Angeles Center
Sat 07:57:38 PM 36.1978 -115.1453 73° East 306 352 12,300 2,565 Climbing Los Angeles Center
Sat 07:58:40 PM 36.1975 -115.0294 90° East 334 384 15,000 2,400 Climbing Los Angeles Center
Sat 07:59:43 PM 36.1978 -114.9044 90° East 359 413 17,300 2,304 Climbing Los Angeles Center
Sat 08:00:45 PM 36.1997 -114.7672 89° East 394 453 19,800 2,613 Climbing Los Angeles Center
Sat 08:01:47 PM 36.1989 -114.6292 90° East 401 461 22,700 2,293 Climbing Los Angeles Center
Sat 08:02:48 PM 36.1969 -114.4583 91° East 411 473 24,500 1,707 Climbing Los Angeles Center
Sat 08:03:50 PM 36.2422 -114.3100 69° East 458 527 26,200 1,790 Climbing Los Angeles Center
Sat 08:04:52 PM 36.2883 -114.1606 69° East 465 535 28,200 1,790 Climbing Los Angeles Center
Sat 08:05:54 PM 36.3383 -114.0083 68° East 471 542 29,900 1,415 Climbing Los Angeles Center
Sat 08:06:55 PM 36.3869 -113.8511 69° East 481 554 31,100 1,317 Climbing Los Angeles Center
Sat 08:07:57 PM 36.4372 -113.6911 69° East 493 567 32,600 1,355 Climbing Los Angeles Center
Sat 08:08:59 PM 36.4886 -113.5278 69° East 503 579 33,900 1,210 Climbing Los Angeles Center
Sat 08:10:01 PM 36.5389 -113.3667 69° East 505 581 35,100 1,210 Climbing Los Angeles Center
Sat 08:11:03 PM 36.5883 -113.1628 73° East 513 590 36,400 919 Climbing Los Angeles Center
Sat 08:12:05 PM 36.6303 -112.9947 73° East 513 590 37,000 293 Climbing Los Angeles Center
Sat 08:13:06 PM 36.6717 -112.8247 73° East 515 593 37,000  Level Los Angeles Center
Sat 08:14:08 PM 36.7117 -112.6564 73° East 513 590 37,000  Level Los Angeles Center
Sat 08:15:10 PM 36.7594 -112.4564 73° East 507 583 37,000  Level Los Angeles Center
Sat 08:16:12 PM 36.7989 -112.2894 74° East 505 581 37,000  Level Los Angeles Center
Sat 08:17:13 PM 36.8375 -112.1244 74° East 501 577 37,000  Level Los Angeles Center
Sat 08:18:15 PM 36.8775 -111.9611 73° East 496 571 37,000  Level Los Angeles Center
Sat 08:19:17 PM 36.9142 -111.7956 74° East 496 571 37,000  Level Los Angeles Center
Sat 08:20:31 PM 36.9542 -111.6297 73° East 499 574 37,000  Level Los Angeles Center
Sat 08:21:33 PM 36.9989 -111.4303 74° East 500 575 37,000  Level Los Angeles Center
Sat 08:22:34 PM 37.0375 -111.2625 74° East 503 579 37,000  Level Los Angeles Center
Sat 08:23:43 PM 37.0831 -111.0597 74° East 503 579 37,000  Level Denver Center
Sat 08:24:45 PM 37.1267 -110.8581 75° East 503 579 37,000  Level Denver Center
Sat 08:25:47 PM 37.1639 -110.6911 74° East 500 575 37,000  Level Denver Center
Sat 08:26:49 PM 37.2006 -110.5247 74° East 497 572 37,000  Level Denver Center
Sat 08:27:51 PM 37.2369 -110.3578 75° East 498 573 37,000  Level Denver Center
Sat 08:28:52 PM 37.2719 -110.1900 75° East 499 574 37,000  Level Denver Center
Sat 08:29:54 PM 37.3139 -109.9950 75° East 499 574 37,000  Level Denver Center
Sat 08:30:56 PM 37.3489 -109.8333 75° East 500 575 37,000  Level Denver Center
Sat 08:31:57 PM 37.3825 -109.6739 75° East 494 568 37,000  Level Denver Center
Sat 08:32:59 PM 37.4214 -109.4847 75° East 499 574 37,000  Level Denver Center
Sat 08:34:01 PM 37.4564 -109.3244 75° East 497 572 37,000  Level Denver Center
Sat 08:35:02 PM 37.4950 -109.1333 76° East 503 579 37,000  Level Denver Center
Sat 08:36:04 PM 37.5278 -108.9703 76° East 504 580 37,000  Level Denver Center
Sat 08:37:05 PM 37.5611 -108.8075 75° East 502 578 37,000  Level Denver Center
Sat 08:38:07 PM 37.5992 -108.6158 76° East 503 579 37,000  Level Denver Center
Sat 08:39:09 PM 37.6314 -108.4536 76° East 500 575 37,000  Level Denver Center
Sat 08:40:10 PM 37.6692 -108.2622 76° East 500 575 37,000  Level Denver Center
Sat 08:41:12 PM 37.7019 -108.1006 76° East 498 573 37,000  Level Denver Center
Sat 08:42:13 PM 37.7339 -107.9369 76° East 498 573 37,000  Level Denver Center
Sat 08:43:15 PM 37.7703 -107.7456 76° East 500 575 37,000  Level Denver Center
Sat 08:44:16 PM 37.8022 -107.5786 76° East 507 583 37,000  Level Denver Center
Sat 08:45:17 PM 37.8386 -107.3856 77° East 507 583 37,000  Level Denver Center
Sat 08:46:18 PM 37.8644 -107.2453 77° East 511 588 37,000  Level Denver Center
Sat 08:47:20 PM 37.9042 -107.0364 76° East 508 585 37,000  Level Denver Center
Sat 08:48:21 PM 37.9353 -106.8700 77° East 509 586 37,000  Level Denver Center
Sat 08:49:23 PM 37.9708 -106.6750 77° East 510 587 37,000  Level Denver Center
Sat 08:50:24 PM 38.0022 -106.4972 77° East 511 588 37,000  Level Denver Center
Sat 08:51:25 PM 38.0322 -106.3308 77° East 507 583 37,000  Level Denver Center
Sat 08:52:27 PM 38.0672 -106.1361 77° East 507 583 37,000  Level Denver Center
Sat 08:53:40 PM 38.0969 -105.9708 77° East 503 579 37,000  Level Denver Center
Sat 08:54:42 PM 38.1331 -105.7500 78° East 501 577 37,000  Level Denver Center
Sat 08:55:43 PM 38.1619 -105.5886 77° East 493 567 37,000  Level Denver Center
Sat 08:56:45 PM 38.1925 -105.4278 76° East 489 563 37,000  Level Denver Center
Sat 08:57:46 PM 38.2589 -105.2542 64° Northeast 488 562 37,000  Level Denver Center
Sat 08:58:47 PM 38.3236 -105.1092 60° Northeast 489 563 37,000  Level Denver Center
Sat 08:59:49 PM 38.3950 -104.9492 60° Northeast 484 557 37,000  Level Denver Center
Sat 09:00:50 PM 38.4631 -104.8011 60° Northeast 484 557 37,000  Level Denver Center
Sat 09:01:51 PM 38.5292 -104.6514 61° Northeast 486 559 37,000  Level Denver Center
Sat 09:02:53 PM 38.5961 -104.5025 60° Northeast 485 558 37,000  Level Denver Center
Sat 09:03:54 PM 38.6825 -104.3747 49° Northeast 483 556 37,000  Level Denver Center
Sat 09:04:56 PM 38.7869 -104.2778 36° Northeast 466 536 37,000  Level Denver Center
Sat 09:05:57 PM 38.8917 -104.1803 36° Northeast 468 539 37,000  Level Denver Center
Sat 09:06:58 PM 39.0178 -104.0636 36° Northeast 468 539 37,000  Level Denver Center
Sat 09:07:59 PM 39.1236 -103.9658 36° Northeast 470 541 37,000  Level Denver Center
Sat 09:09:01 PM 39.2289 -103.8683 36° Northeast 469 540 37,000  Level Denver Center
Sat 09:10:02 PM 39.3367 -103.7733 34° Northeast 471 542 37,000  Level Denver Center
Sat 09:11:03 PM 39.4233 -103.6961 35° Northeast 475 547 37,000 146 Level Denver Center
Sat 09:12:05 PM 39.5556 -103.5778 35° Northeast 485 558 37,300 634 Climbing Denver Center
Sat 09:13:06 PM 39.6683 -103.4767 35° Northeast 493 567 38,300 738 Climbing Denver Center
Sat 09:14:07 PM 39.8031 -103.3531 35° Northeast 498 573 38,800 341 Climbing Denver Center
Sat 09:15:09 PM 39.9172 -103.2461 36° Northeast 506 582 39,000 98 Climbing Denver Center
Sat 09:16:10 PM 40.0292 -103.1375 37° Northeast 505 581 39,000  Level Denver Center
Sat 09:17:11 PM 40.1436 -103.0328 35° Northeast 504 580 39,000  Level Denver Center
Sat 09:18:12 PM 40.2342 -102.9483 35° Northeast 503 579 39,000  Level Denver Center
Sat 09:19:14 PM 40.3297 -102.7631 56° Northeast 516 594 39,000  Level Denver Center
Sat 09:20:15 PM 40.3539 -102.5811 80° East 513 590 39,000  Level Denver Center
Sat 09:21:17 PM 40.3586 -102.3750 88° East 508 585 39,000  Level Denver Center
Sat 09:22:18 PM 40.3667 -102.1972 87° East 511 588 39,000  Level Denver Center
Sat 09:23:19 PM 40.3728 -101.9878 88° East 515 593 39,000  Level Denver Center
Sat 09:24:21 PM 40.3778 -101.8075 88° East 518 596 39,000  Level Denver Center
Sat 09:25:22 PM 40.3847 -101.5981 87° East 515 593 39,000  Level Denver Center
Sat 09:26:23 PM 40.3894 -101.4172 88° East 519 597 39,000  Level Denver Center
Sat 09:27:25 PM 40.3942 -101.2369 88° East 519 597 39,000  Level Denver Center
Sat 09:28:26 PM 40.3983 -101.0275 88° East 518 596 39,000  Level Denver Center
Sat 09:29:27 PM 40.3664 -100.8564 104° East 512 589 39,000  Level Denver Center
Sat 09:30:29 PM 40.3692 -100.6492 89° East 514 592 39,000  Level Denver Center
Sat 09:31:30 PM 40.3728 -100.4733 88° East 511 588 39,000  Level Denver Center
Sat 09:32:32 PM 40.3775 -100.2689 88° East 505 581 39,000  Level Denver Center
Sat 09:33:33 PM 40.3803 -100.0967 89° East 499 574 39,000  Level Denver Center
Sat 09:34:34 PM 40.3842 -99.9292 88° East 486 559 39,000  Level Denver Center
Sat 09:35:36 PM 40.3914 -99.7397 87° East 487 560 39,000  Level Denver Center
Sat 09:36:37 PM 40.4153 -99.5650 80° East 489 563 39,000  Level Denver Center
Sat 09:37:38 PM 40.4208 -99.3883 88° East 487 560 39,000  Level Denver Center
Sat 09:38:30 PM 40.4225 -99.2144 89° East 484 557 39,000  Level Minneapolis Center
Sat 09:39:32 PM 40.4239 -99.0367 89° East 488 562 39,000  Level Minneapolis Center
Sat 09:40:33 PM 40.4256 -98.8592 89° East 489 563 39,000  Level Minneapolis Center
Sat 09:41:34 PM 40.4256 -98.6822 90° East 489 563 39,000  Level Minneapolis Center
Sat 09:42:36 PM 40.4264 -98.5039 90° East 491 565 39,000  Level Minneapolis Center
Sat 09:43:37 PM 40.4267 -98.3264 90° East 490 564 39,000  Level Minneapolis Center
Sat 09:44:38 PM 40.4261 -98.1492 90° East 489 563 39,000  Level Minneapolis Center
Sat 09:45:39 PM 40.4264 -97.9711 90° East 489 563 39,000  Level Minneapolis Center
Sat 09:46:41 PM 40.4253 -97.7586 90° East 488 562 39,000  Level Minneapolis Center
Sat 09:47:42 PM 40.4242 -97.5808 90° East 488 562 39,000  Level Minneapolis Center
Sat 09:48:43 PM 40.4231 -97.4028 90° East 489 563 39,000  Level Minneapolis Center
Sat 09:49:45 PM 40.4219 -97.2450 90° East 492 566 39,000  Level Minneapolis Center
Sat 09:50:46 PM 40.4189 -97.0303 91° East 493 567 39,000  Level Minneapolis Center
Sat 09:51:47 PM 40.4178 -96.8517 90° East 491 565 39,000  Level Minneapolis Center
Sat 09:52:48 PM 40.4158 -96.6747 91° East 489 563 39,000  Level Minneapolis Center
Sat 09:53:50 PM 40.4131 -96.4972 91° East 489 563 39,000  Level Minneapolis Center
Sat 09:54:51 PM 40.4106 -96.3186 91° East 491 565 39,000  Level Minneapolis Center
Sat 09:55:52 PM 40.4072 -96.1425 91° East 488 562 39,000  Level Minneapolis Center
Sat 09:56:53 PM 40.4044 -95.9656 91° East 488 562 39,000  Level Minneapolis Center
Sat 09:57:54 PM 40.4000 -95.7853 92° East 494 568 39,000  Level Minneapolis Center
Sat 09:58:56 PM 40.3969 -95.6108 91° East 486 559 39,000  Level Minneapolis Center
Sat 09:59:57 PM 40.3911 -95.3972 92° East 489 563 39,000  Level Minneapolis Center
Sat 10:00:58 PM 40.3872 -95.2194 92° East 490 564 39,000  Level Minneapolis Center
Sat 10:01:59 PM 40.3833 -95.0442 92° East 486 559 39,000  Level Minneapolis Center
Sat 10:03:00 PM 40.3789 -94.8692 92° East 483 556 39,000  Level Minneapolis Center
Sat 10:03:30 PM 40.3742 -94.7861 94° East 484 557 39,000  Level Kansas City Center
Sat 10:04:31 PM 40.3694 -94.6186 92° East 481 554 39,000  Level Kansas City Center
Sat 10:05:30 PM 40.3639 -94.4497 92° East 481 554 39,000  Level Kansas City Center
Sat 10:06:32 PM 40.3572 -94.2642 93° East 482 555 39,000  Level Kansas City Center
Sat 10:07:30 PM 40.3514 -94.0906 92° East 480 552 39,000  Level Kansas City Center
Sat 10:08:33 PM 40.3450 -93.9167 93° East 481 554 39,000  Level Kansas City Center
Sat 10:09:34 PM 40.3378 -93.7450 93° East 478 550 39,000  Level Kansas City Center
Sat 10:10:33 PM 40.3306 -93.5731 93° East 477 549 39,000  Level Kansas City Center
Sat 10:11:33 PM 40.3247 -93.4025 93° East 475 547 39,000  Level Kansas City Center
Sat 10:12:34 PM 40.3147 -93.2306 94° East 475 547 39,000  Level Kansas City Center
Sat 10:13:37 PM 40.2889 -93.0364 100° East 475 547 39,000  Level Kansas City Center
Sat 10:14:37 PM 40.2703 -92.8744 99° East 472 543 39,000  Level Kansas City Center
Sat 10:15:39 PM 40.2467 -92.6836 99° East 474 545 39,000  Level Kansas City Center
Sat 10:16:39 PM 40.2264 -92.5197 99° East 476 548 39,000  Level Kansas City Center
Sat 10:17:40 PM 40.2067 -92.3542 99° East 480 552 39,000  Level Kansas City Center
Sat 10:18:41 PM 40.1878 -92.1950 99° East 478 550 39,000  Level Kansas City Center
Sat 10:19:40 PM 40.1619 -91.9950 100° East 472 543 39,000  Level Kansas City Center
Sat 10:20:42 PM 40.1400 -91.8269 100° East 473 544 39,000  Level Kansas City Center
Sat 10:21:41 PM 40.1178 -91.6597 100° East 472 543 39,000  Level Kansas City Center
Sat 10:22:44 PM 40.0961 -91.4917 100° East 473 544 39,000  Level Kansas City Center
Sat 10:23:44 PM 40.0739 -91.3258 100° East 471 542 39,000  Level Kansas City Center
Sat 10:24:43 PM 40.0511 -91.1622 100° East 465 535 39,000  Level Kansas City Center
Sat 10:25:45 PM 40.0306 -91.0011 99° East 457 526 39,000  Level Kansas City Center
Sat 10:26:45 PM 40.0058 -90.8228 100° East 457 526 39,000  Level Kansas City Center
Sat 10:27:47 PM 39.9825 -90.6583 100° East 461 531 39,000 -683 Level Kansas City Center
Sat 10:28:48 PM 39.9775 -90.4878 92° East 475 547 37,600 -1,279 Descending Kansas City Center
Sat 10:29:49 PM 39.9728 -90.3136 92° East 481 554 36,400 -1,261 Descending Kansas City Center
Sat 10:30:47 PM 39.9692 -90.1389 91° East 485 558 35,100 -700 Descending Kansas City Center
Sat 10:31:49 PM 39.9647 -89.9653 92° East 484 557 35,000 -48 Descending Kansas City Center
Sat 10:32:51 PM 39.9594 -89.7942 92° East 480 552 35,000  Level Kansas City Center
Sat 10:33:51 PM 39.9544 -89.6222 92° East 479 551 35,000  Level Kansas City Center
Sat 10:34:50 PM 39.9497 -89.4472 92° East 481 554 35,000  Level Kansas City Center
Sat 10:35:50 PM 39.9450 -89.2781 92° East 476 548 35,000  Level Kansas City Center
Sat 10:36:53 PM 39.9392 -89.1075 92° East 474 545 35,000 -907 Level Kansas City Center
Sat 10:37:16 PM 39.9347 -89.0058 93° East 475 547 33,700 -2,431 Descending Chicago Center
Sat 10:38:49 PM 39.9253 -88.7378 93° East 475 547 30,300 -2,104 Descending Indianapolis Center
Sat 10:39:50 PM 39.9197 -88.5722 92° East 464 534 28,300 -1,918 Descending Indianapolis Center
Sat 10:40:51 PM 39.9122 -88.4106 93° East 451 519 26,400 -1,857 Descending Indianapolis Center
Sat 10:41:56 PM 39.9081 -88.2469 92° East 441 507 24,400 -1,190 Descending Kansas City Center
Sat 10:42:52 PM 39.9011 -88.1050 94° East 428 493 24,000 -256 Descending Indianapolis Center
Sat 10:43:53 PM 39.8942 -87.9581 93° East 417 480 23,900 -942 Descending Indianapolis Center
Sat 10:44:53 PM 39.8889 -87.8139 93° East 404 465 22,100 -1,736 Descending Indianapolis Center
Sat 10:45:54 PM 39.8817 -87.6733 94° East 395 455 20,400 -1,672 Descending Indianapolis Center
Sat 10:46:55 PM 39.8750 -87.5375 94° East 383 441 18,700 -1,736 Descending Indianapolis Center
Sat 10:47:55 PM 39.8692 -87.4031 93° East 375 432 16,900 -1,736 Descending Indianapolis Center
Sat 10:48:56 PM 39.8619 -87.2678 94° East 375 432 15,200 -1,721 Descending Indianapolis Center
Sat 10:49:57 PM 39.8556 -87.1367 94° East 369 425 13,400 -1,587 Descending Indianapolis Center
Sat 10:50:57 PM 39.8506 -87.0094 93° East 359 413 12,000 -1,190 Descending Indianapolis Center
Sat 10:51:58 PM 39.8514 -86.8881 89° East 343 395 11,000 -492 Descending Indianapolis Center
Sat 10:52:59 PM 39.8514 -86.7731 90° East 326 375 11,000 -793 Level Indianapolis Center
Sat 10:53:59 PM 39.8508 -86.6581 90° East 319 367 9,400 -1,488 Descending Indianapolis Center
Sat 10:55:00 PM 39.8500 -86.5431 91° East 319 367 8,000 -1,488 Descending Indianapolis Center
Sat 10:56:00 PM 39.8494 -86.4303 90° East 313 360 6,400 -1,587 Descending Indianapolis Center
Sat 10:57:01 PM 39.8489 -86.3181 90° East 308 354 4,800 -1,377 Descending Indianapolis Center
Sat 10:58:02 PM 39.8444 -86.2167 93° East 286 329 3,600 -1,140 Descending Indianapolis Center
Sat 10:59:02 PM 39.7978 -86.2053 169° South 218 251 2,500 -893 Descending Indianapolis Center
Sat 11:00:03 PM 39.7678 -86.2417 223° Southwest 173 199 1,800 -689 Descending Indianapolis Center
Sat 11:01:04 PM 39.7414 -86.2769 226° Southwest 149 171 1,100 -496 Descending Indianapolis Center
Sat 11:02:04 PM 39.7147 -86.3100 224° Southwest 144 166 800 -300 Descending Indianapolis Center

Login

Don't have an account? Register now (free) for customized features, flight alerts, and more!